Pagrindinis puslapis
METAR-TAF:

METAR-TAF

Oro uostai :

Sparrevohn, Aliaska, Jungtinės Amerikos Valstijos

platuma: 61-06N, ilguma: 155-34W, Aukštis: 484 m

Dabartinis oras

Ataskaita buvo paskelbta 1 valandą ir 11 minutes, ne 20:55 UTC
Vėjas 7 kt iš Vakarų/Šiaurės Vakarų, svyruoja nuo Vakarų ir Šiaurės/Šiaurės Vakarų
Temperatūra 3°C
Drėgmė 75%
Slėgis 1002 hPa
Matomumas: 16.1 km
Giedras dangus

METAR: PASV 212055Z AUTO 30007KT 270V340 10SM CLR 03/M01 A2960 RMK AO2 SLP040 T00251012 52013

Laikas: 14:06 (22:06 UTC)


TAF: trūkstamas

Orai ataskaitas ir orų prognozės (METAR, TAF).

turimą stotys yra geltonos ir raudonos taškus žemėlapyje.

Perkelti pele per norėdami pamatyti stoties vardą.

Tada spustelėkite, norėdami matyti oro stebėjimo ir prognozės.

Norėdami pakeisti žemėlapį: spustelėkite ant žalios mygtukų su juodo kryžiaus žemyn,; žalią mygtuką su brūkšneliu, jei norite nutolinti; arba žalių rodyklių gretimoms žemėlapius.


METAR-TAF: